This is the latest recevied weather packets stored in our database for station/object PY2FGD-15. If no packets are shown the sender has not sent any weather packets the latest 10 day(s).
| Time | Temp. | Humidity | Pressure | Rain* | Wind** | Luminosity | Snow |
|---|---|---|---|---|---|---|---|
| 1778053805 | 16.67° C | 84% | 1019 hPa | 2.54 mm | - | - | - |
| 1778053203 | 16.67° C | 84% | 1019 hPa | 2.54 mm | - | - | - |
| 1778052603 | 17.22° C | 84% | 1019 hPa | 2.54 mm | - | - | - |
| 1778047203 | 20° C | 84% | 1020 hPa | 2.54 mm | - | - | - |
| 1778046604 | 20° C | 84% | 1020 hPa | 2.54 mm | - | - | - |
| 1778046003 | 20.56° C | 84% | 1020 hPa | 2.54 mm | - | - | - |
| 1778043605 | 21.67° C | 82% | 1020 hPa | 2.54 mm | - | - | - |
| 1778037603 | 17.78° C | 83% | 1020 hPa | 2.54 mm | - | - | - |
| 1778035804 | 18.33° C | 83% | 1020 hPa | 2.54 mm | - | - | - |
| 1778023806 | 22.78° C | 83% | 1020 hPa | 2.54 mm | - | - | - |
| 1778020803 | 22.78° C | 80% | 1019 hPa | 2.54 mm | - | - | - |
| 1778019603 | 22.78° C | 78% | 1019 hPa | 2.54 mm | - | - | - |
| 1778018406 | 22.78° C | 76% | 1019 hPa | 2.54 mm | - | - | - |
| 1778017208 | 22.78° C | 75% | 1019 hPa | 2.54 mm | - | - | - |
| 1778014806 | 22.78° C | 74% | 1018 hPa | 2.54 mm | - | - | - |
| 1778013603 | 23.33° C | 72% | 1018 hPa | 2.54 mm | - | - | - |
| 1778011803 | 25.56° C | 61% | 1018 hPa | 2.54 mm | - | - | - |
| 1778011206 | 26.11° C | 61% | 1018 hPa | 2.54 mm | - | - | - |
| 1778008803 | 27.78° C | 61% | 1018 hPa | 2.54 mm | - | - | - |
| 1778007606 | 28.33° C | 61% | 1018 hPa | 2.54 mm | - | - | - |
| 1778005204 | 29.44° C | 61% | 1018 hPa | 2.54 mm | - | - | - |
| 1777998604 | 28.33° C | 63% | 1020 hPa | 2.54 mm | - | - | - |
| 1777998003 | 28.33° C | 63% | 1020 hPa | 2.54 mm | - | - | - |
| 1777992603 | 26.67° C | 62% | 1020 hPa | 2.54 mm | - | - | - |
| 1777987204 | 21.67° C | 79% | 1021 hPa | 2.54 mm | - | - | - |
* Rain latest hour (hover to see other rain measurements)
** Current wind speed in m/s (hover to see current wind gust speed)